Time;durP1;ratioP1;P1;durP2;ratioP2;P2;SDS_P1;SDS_P2;PMS_P1;PMS_P2;Temp;Humidity;BMP_temperature;BMP_pressure;BME280_temperature;BME280_humidity;BME280_pressure;Samples;Min_cycle;Max_cycle;Signal;HPM_P1;HPM_P2
2023/05/03 00:00:03;;;;;;;8.20;3.13;;;8.40;99.90;;;;;;5089734;28;20221;-83
2023/05/03 00:02:32;;;;;;;9.80;2.78;;;8.40;99.90;;;;;;5071651;28;20651;-83
2023/05/03 00:04:59;;;;;;;9.30;2.95;;;8.30;99.90;;;;;;5072058;28;20201;-82
2023/05/03 00:07:25;;;;;;;7.07;2.55;;;8.30;99.90;;;;;;5087732;28;20201;-83
2023/05/03 00:09:51;;;;;;;6.88;3.03;;;8.30;99.90;;;;;;5091991;28;20665;-82
2023/05/03 00:12:17;;;;;;;10.73;2.67;;;8.30;99.90;;;;;;5092315;28;20186;-84
2023/05/03 00:14:44;;;;;;;8.35;2.40;;;8.40;99.90;;;;;;5092397;28;20208;-84
2023/05/03 00:17:10;;;;;;;11.32;2.85;;;8.30;99.90;;;;;;5088989;28;20232;-84
2023/05/03 00:19:36;;;;;;;4.82;2.38;;;8.40;99.90;;;;;;5091677;28;20181;-82
2023/05/03 00:22:02;;;;;;;8.90;2.90;;;8.40;99.90;;;;;;5074131;28;20181;-82
2023/05/03 00:24:28;;;;;;;5.30;2.30;;;8.30;99.90;;;;;;5072523;28;20819;-82
2023/05/03 00:26:54;;;;;;;6.78;2.60;;;8.40;99.90;;;;;;5090673;28;20293;-83
2023/05/03 00:29:21;;;;;;;6.65;2.63;;;8.40;99.90;;;;;;5091894;28;20560;-83
2023/05/03 00:31:47;;;;;;;3.50;2.50;;;8.40;99.90;;;;;;5041507;28;20186;-84
2023/05/03 00:34:13;;;;;;;8.98;2.70;;;8.40;99.90;;;;;;5085226;28;20239;-84
2023/05/03 00:36:39;;;;;;;5.18;2.28;;;8.30;99.90;;;;;;5081300;28;20185;-83
2023/05/03 00:39:05;;;;;;;8.65;2.65;;;8.40;99.90;;;;;;5071418;28;20183;-82
2023/05/03 00:41:30;;;;;;;8.68;2.72;;;8.40;99.90;;;;;;5070444;28;20659;-84
2023/05/03 00:43:56;;;;;;;6.97;2.65;;;8.30;99.90;;;;;;5071818;28;20213;-83
2023/05/03 00:46:22;;;;;;;9.00;2.80;;;8.30;99.90;;;;;;5077988;28;20324;-83
2023/05/03 00:48:48;;;;;;;6.47;2.70;;;8.30;99.90;;;;;;5072021;28;20175;-83
2023/05/03 00:51:15;;;;;;;5.70;2.60;;;8.30;99.90;;;;;;5064884;28;20182;-83
2023/05/03 00:53:42;;;;;;;5.43;2.55;;;8.30;99.90;;;;;;5071049;28;20226;-83
2023/05/03 00:56:08;;;;;;;6.60;2.90;;;8.40;99.90;;;;;;5072139;28;20573;-83
2023/05/03 00:58:38;;;;;;;5.47;2.80;;;8.40;99.90;;;;;;5081117;28;20192;-83
2023/05/03 01:01:06;;;;;;;7.90;2.65;;;8.40;99.90;;;;;;5065962;28;20186;-83
2023/05/03 01:03:35;;;;;;;4.88;2.50;;;8.40;99.90;;;;;;5090753;28;20181;-84
2023/05/03 01:06:18;;;;;;;7.25;3.10;;;8.40;99.90;;;;;;5073043;28;20217;-83
2023/05/03 01:08:55;;;;;;;7.35;2.67;;;8.50;99.90;;;;;;5073075;28;20236;-82
2023/05/03 01:11:32;;;;;;;3.97;2.53;;;8.50;99.90;;;;;;5072821;28;20182;-83
2023/05/03 01:14:18;;;;;;;6.53;2.55;;;8.50;99.90;;;;;;5090868;28;20535;-83
2023/05/03 01:16:53;;;;;;;7.30;2.72;;;8.50;99.90;;;;;;5091000;28;20246;-82
2023/05/03 01:19:34;;;;;;;5.80;2.60;;;8.50;99.90;;;;;;5068613;28;20182;-82
2023/05/03 01:22:23;;;;;;;9.02;3.10;;;8.50;99.90;;;;;;5072524;28;20264;-83
2023/05/03 01:25:04;;;;;;;7.40;2.70;;;8.40;99.90;;;;;;5079542;28;20197;-84
2023/05/03 01:27:30;;;;;;;5.65;2.65;;;8.50;99.90;;;;;;5081562;28;20206;-82
2023/05/03 01:29:56;;;;;;;4.13;2.17;;;8.50;99.90;;;;;;5095737;28;20195;-83
2023/05/03 01:32:54;;;;;;;6.10;2.40;;;8.40;99.90;;;;;;5082655;28;20276;-82
2023/05/03 01:35:48;;;;;;;3.95;2.15;;;8.50;99.90;;;;;;5062402;28;20193;-83
2023/05/03 01:38:16;;;;;;;4.35;2.20;;;8.50;99.90;;;;;;5095192;28;20260;-83
2023/05/03 01:40:48;;;;;;;7.07;2.10;;;8.40;99.90;;;;;;5076873;28;20298;-83
2023/05/03 01:43:16;;;;;;;5.82;1.95;;;8.40;99.90;;;;;;5097563;28;20182;-83
2023/05/03 01:45:43;;;;;;;4.47;2.20;;;8.50;99.90;;;;;;5093945;28;20212;-82
2023/05/03 01:48:13;;;;;;;8.52;2.28;;;8.50;99.90;;;;;;5094863;28;20202;-83
2023/05/03 01:50:40;;;;;;;3.80;2.00;;;8.50;99.90;;;;;;5087392;28;20182;-82
2023/05/03 01:53:06;;;;;;;7.43;1.95;;;8.50;99.90;;;;;;5083634;28;20182;-82
2023/05/03 01:55:32;;;;;;;5.28;2.05;;;8.50;99.90;;;;;;5072202;28;20261;-82
2023/05/03 01:57:58;;;;;;;4.47;2.03;;;8.50;99.90;;;;;;5083638;28;20213;-83
2023/05/03 02:00:24;;;;;;;3.97;2.00;;;8.50;99.90;;;;;;5093537;28;20181;-82
2023/05/03 02:02:50;;;;;;;6.20;2.40;;;8.50;99.90;;;;;;5092678;28;20190;-82
2023/05/03 02:05:16;;;;;;;4.03;2.10;;;8.50;99.90;;;;;;5090266;28;20652;-83
2023/05/03 02:07:42;;;;;;;4.53;2.03;;;8.40;99.90;;;;;;5074147;28;20226;-83
2023/05/03 02:10:13;;;;;;;3.20;2.20;;;8.40;99.90;;;;;;5069361;28;20643;-82
2023/05/03 02:12:40;;;;;;;4.47;2.30;;;8.40;99.90;;;;;;5073661;28;20538;-83
2023/05/03 02:15:07;;;;;;;5.53;2.22;;;8.40;99.90;;;;;;5042747;28;20222;-82
2023/05/03 02:17:33;;;;;;;6.18;2.38;;;8.40;99.90;;;;;;5094041;28;20231;-83
2023/05/03 02:19:58;;;;;;;6.03;2.10;;;8.40;99.90;;;;;;5072543;28;20190;-84
2023/05/03 02:22:24;;;;;;;6.72;2.30;;;8.40;99.90;;;;;;5073851;28;20583;-82
2023/05/03 02:24:50;;;;;;;3.85;2.28;;;8.40;99.90;;;;;;5088826;28;20315;-82
2023/05/03 02:27:16;;;;;;;3.60;2.10;;;8.40;99.90;;;;;;5076581;28;20213;-82
2023/05/03 02:29:42;;;;;;;4.85;2.40;;;8.40;99.90;;;;;;5075025;28;20229;-85
2023/05/03 02:32:09;;;;;;;5.40;2.30;;;8.40;99.90;;;;;;5089804;28;20636;-82
2023/05/03 02:34:35;;;;;;;5.57;2.30;;;8.40;99.90;;;;;;5080553;28;20287;-83
2023/05/03 02:37:01;;;;;;;6.47;2.50;;;8.40;99.90;;;;;;5059888;28;20194;-82
2023/05/03 02:39:28;;;;;;;6.85;2.40;;;8.40;99.90;;;;;;5071093;28;20712;-82
2023/05/03 02:41:54;;;;;;;5.13;2.50;;;8.40;99.90;;;;;;5092818;28;20210;-82
2023/05/03 02:44:20;;;;;;;4.88;2.60;;;8.40;99.90;;;;;;5092641;28;20182;-83
2023/05/03 02:46:45;;;;;;;5.68;2.40;;;8.40;99.90;;;;;;5097536;28;20209;-83
2023/05/03 02:49:15;;;;;;;5.72;2.60;;;8.30;99.90;;;;;;5095205;28;20241;-84
2023/05/03 02:51:41;;;;;;;5.15;2.20;;;8.30;99.90;;;;;;5078208;28;20193;-84
2023/05/03 02:54:07;;;;;;;6.72;2.15;;;8.40;99.90;;;;;;5078347;28;20221;-83
2023/05/03 02:56:32;;;;;;;4.93;2.40;;;8.30;99.90;;;;;;5095880;28;20706;-83
2023/05/03 02:58:58;;;;;;;2.75;2.00;;;8.30;99.90;;;;;;5093668;28;20175;-82
2023/05/03 03:01:24;;;;;;;7.22;2.50;;;8.30;99.90;;;;;;5071622;28;20262;-83
2023/05/03 03:03:50;;;;;;;4.07;2.35;;;8.30;99.90;;;;;;5052252;28;20190;-83
2023/05/03 03:06:16;;;;;;;5.60;2.60;;;8.30;99.90;;;;;;5091701;28;20205;-83
2023/05/03 03:08:42;;;;;;;6.15;2.67;;;8.30;99.90;;;;;;5060098;28;20634;-82
2023/05/03 03:11:08;;;;;;;7.38;2.75;;;8.20;99.90;;;;;;5074705;28;20189;-83
2023/05/03 03:13:38;;;;;;;5.13;2.50;;;8.20;99.90;;;;;;5057869;28;20182;-84
2023/05/03 03:16:06;;;;;;;4.80;2.50;;;8.20;99.90;;;;;;5072654;28;20186;-83
2023/05/03 03:18:33;;;;;;;7.13;2.55;;;8.10;99.90;;;;;;5039698;28;20175;-82
2023/05/03 03:21:00;;;;;;;3.88;2.85;;;8.10;99.90;;;;;;5066528;28;20259;-83
2023/05/03 03:23:26;;;;;;;3.72;2.60;;;8.10;99.90;;;;;;5057814;28;20528;-83
2023/05/03 03:25:52;;;;;;;5.95;2.60;;;8.10;99.90;;;;;;5058135;28;20207;-83
2023/05/03 03:28:18;;;;;;;8.43;2.70;;;8.00;99.90;;;;;;5040769;28;20270;-83
2023/05/03 03:30:45;;;;;;;8.70;2.83;;;8.00;99.90;;;;;;5047822;28;20184;-82
2023/05/03 03:33:21;;;;;;;6.32;2.38;;;8.00;99.90;;;;;;5085537;28;20189;-83
2023/05/03 03:35:47;;;;;;;6.10;2.45;;;8.00;99.90;;;;;;5069234;28;20236;-83
2023/05/03 03:38:15;;;;;;;5.18;2.50;;;8.00;99.90;;;;;;5056738;28;20205;-83
2023/05/03 03:40:48;;;;;;;4.10;2.28;;;8.00;99.90;;;;;;5055708;28;20189;-82
2023/05/03 03:43:15;;;;;;;4.65;2.20;;;8.00;99.90;;;;;;5075176;28;20188;-84
2023/05/03 03:45:41;;;;;;;5.40;2.50;;;8.00;99.90;;;;;;5071644;28;20189;-83
2023/05/03 03:48:08;;;;;;;5.85;2.72;;;8.00;99.90;;;;;;5090677;28;20194;-81
2023/05/03 03:50:34;;;;;;;5.65;2.58;;;8.00;99.90;;;;;;5074484;28;20891;-82
2023/05/03 03:53:00;;;;;;;8.20;2.63;;;8.00;99.90;;;;;;5092769;28;20186;-81
2023/05/03 03:55:26;;;;;;;5.05;2.20;;;8.00;99.90;;;;;;5068736;28;20226;-82
2023/05/03 03:57:53;;;;;;;5.07;2.45;;;8.00;99.90;;;;;;5060497;28;20239;-84
2023/05/03 04:00:20;;;;;;;10.05;2.50;;;8.00;99.90;;;;;;5054793;28;20702;-82
2023/05/03 04:02:53;;;;;;;5.13;2.40;;;7.90;99.90;;;;;;5056550;28;20201;-83
2023/05/03 04:05:19;;;;;;;6.53;2.47;;;7.90;99.90;;;;;;5053936;28;20565;-83
2023/05/03 04:07:45;;;;;;;7.90;2.58;;;8.00;99.90;;;;;;5056991;28;20253;-83
2023/05/03 04:10:12;;;;;;;4.68;2.28;;;8.00;99.90;;;;;;5057256;28;20185;-83
2023/05/03 04:12:39;;;;;;;5.72;2.40;;;8.00;99.90;;;;;;5089090;28;20269;-84
2023/05/03 04:15:07;;;;;;;4.20;2.10;;;8.00;99.90;;;;;;5077033;28;20194;-83
2023/05/03 04:17:34;;;;;;;7.68;2.40;;;8.00;99.90;;;;;;5075424;28;20292;-83
2023/05/03 04:20:05;;;;;;;6.47;2.50;;;8.10;99.90;;;;;;5064549;28;20186;-84
2023/05/03 04:22:32;;;;;;;5.07;2.53;;;8.00;99.90;;;;;;5063266;28;20182;-84
2023/05/03 04:25:00;;;;;;;5.50;2.70;;;8.10;99.90;;;;;;5083399;28;20276;-84
2023/05/03 04:27:26;;;;;;;5.30;2.35;;;8.10;99.90;;;;;;5082568;28;20234;-84
2023/05/03 04:29:53;;;;;;;3.20;2.42;;;8.10;99.90;;;;;;5041169;28;20187;-84
2023/05/03 04:32:22;;;;;;;5.22;2.80;;;8.10;99.90;;;;;;5092986;28;20181;-83
2023/05/03 04:34:51;;;;;;;6.40;2.55;;;8.10;99.90;;;;;;5039791;28;20178;-84
2023/05/03 04:37:20;;;;;;;7.40;2.60;;;8.20;99.90;;;;;;5073318;28;20644;-83
2023/05/03 04:39:47;;;;;;;2.72;2.13;;;8.20;99.90;;;;;;5071582;28;20183;-85
2023/05/03 04:42:14;;;;;;;4.40;2.40;;;8.10;99.90;;;;;;5058902;28;20189;-84
2023/05/03 04:44:41;;;;;;;4.75;2.20;;;8.10;99.90;;;;;;5063662;28;20592;-83
2023/05/03 04:47:07;;;;;;;5.82;2.10;;;8.10;99.90;;;;;;5074114;28;20697;-84
2023/05/03 04:49:33;;;;;;;4.40;2.10;;;8.10;99.90;;;;;;5071269;28;20190;-84
2023/05/03 04:52:00;;;;;;;3.65;2.03;;;8.20;99.90;;;;;;5070117;28;20216;-84
2023/05/03 04:54:27;;;;;;;6.00;2.10;;;8.10;99.90;;;;;;5074174;28;20312;-83
2023/05/03 04:56:54;;;;;;;5.10;1.92;;;8.20;99.90;;;;;;5079474;28;20187;-85
2023/05/03 04:59:20;;;;;;;5.32;1.95;;;8.20;99.90;;;;;;5074774;28;20582;-84
2023/05/03 05:01:46;;;;;;;4.60;1.77;;;8.30;99.90;;;;;;5070893;28;20236;-83
2023/05/03 05:04:12;;;;;;;6.72;1.95;;;8.20;99.90;;;;;;5075290;28;20178;-83
2023/05/03 05:06:43;;;;;;;3.42;1.70;;;8.30;99.90;;;;;;5057941;28;20201;-82
2023/05/03 05:09:21;;;;;;;5.20;2.03;;;8.30;99.90;;;;;;5075837;28;20190;-83
2023/05/03 05:11:49;;;;;;;4.57;1.80;;;8.30;99.90;;;;;;5092239;28;20173;-84
2023/05/03 05:14:15;;;;;;;6.07;1.90;;;8.30;99.90;;;;;;5094654;28;20188;-82
2023/05/03 05:16:41;;;;;;;6.38;2.33;;;8.30;99.90;;;;;;5078247;28;20776;-83
2023/05/03 05:19:08;;;;;;;3.58;2.10;;;8.30;99.90;;;;;;5094279;28;20182;-83
2023/05/03 05:21:33;;;;;;;6.85;2.10;;;8.30;99.90;;;;;;5088879;28;20192;-83
2023/05/03 05:24:00;;;;;;;5.25;2.10;;;8.40;99.90;;;;;;5078036;28;20239;-83
2023/05/03 05:26:26;;;;;;;4.30;2.00;;;8.40;99.90;;;;;;5077993;28;20355;-82
2023/05/03 05:28:52;;;;;;;3.22;1.70;;;8.40;99.90;;;;;;5078396;28;20270;-83
2023/05/03 05:31:18;;;;;;;4.50;1.70;;;8.40;99.90;;;;;;5093206;28;20261;-83
2023/05/03 05:33:45;;;;;;;5.90;2.25;;;8.50;99.90;;;;;;5094687;28;20322;-83
2023/05/03 05:36:11;;;;;;;2.88;1.50;;;8.50;99.90;;;;;;5078397;28;20190;-82
2023/05/03 05:38:38;;;;;;;4.47;1.65;;;8.50;99.90;;;;;;5077995;28;20178;-81
2023/05/03 05:41:04;;;;;;;3.40;1.40;;;8.50;99.90;;;;;;5093469;28;20197;-81
2023/05/03 05:43:30;;;;;;;6.57;1.58;;;8.60;99.90;;;;;;5077024;28;20592;-80
2023/05/03 05:45:56;;;;;;;3.22;1.90;;;8.60;99.90;;;;;;5094875;28;20671;-81
2023/05/03 05:48:22;;;;;;;5.57;1.60;;;8.60;99.90;;;;;;5094694;28;20178;-81
2023/05/03 05:50:48;;;;;;;6.28;1.90;;;8.60;99.90;;;;;;5094872;28;20186;-81
2023/05/03 05:53:14;;;;;;;5.15;1.70;;;8.70;99.90;;;;;;5079653;28;20197;-79
2023/05/03 05:55:46;;;;;;;7.80;1.92;;;8.70;99.90;;;;;;5099223;28;20229;-80
2023/05/03 05:58:12;;;;;;;6.40;1.95;;;8.70;99.90;;;;;;5091135;28;20189;-81
2023/05/03 06:00:44;;;;;;;3.78;1.52;;;8.80;99.90;;;;;;5094541;28;20166;-81
2023/05/03 06:03:11;;;;;;;6.57;1.90;;;8.80;99.90;;;;;;5093456;28;20646;-82
2023/05/03 06:05:37;;;;;;;4.43;1.80;;;8.80;99.90;;;;;;5077337;28;20192;-80
2023/05/03 06:08:03;;;;;;;3.67;1.70;;;8.90;99.90;;;;;;5077492;28;20658;-81
2023/05/03 06:10:29;;;;;;;4.15;1.60;;;8.90;99.90;;;;;;5077164;28;20262;-81
2023/05/03 06:12:56;;;;;;;4.05;1.60;;;8.90;99.90;;;;;;5076956;28;20624;-80
2023/05/03 06:15:25;;;;;;;4.22;1.67;;;8.90;99.90;;;;;;5093022;28;20752;-80
2023/05/03 06:17:51;;;;;;;7.05;1.70;;;8.90;99.90;;;;;;5093837;28;20190;-82
2023/05/03 06:20:17;;;;;;;6.25;1.60;;;9.00;99.90;;;;;;5076878;28;20182;-81
2023/05/03 06:22:43;;;;;;;2.30;1.60;;;9.00;99.90;;;;;;5095412;28;20174;-81
2023/05/03 06:25:13;;;;;;;6.18;1.55;;;9.00;99.90;;;;;;5093797;28;20244;-81
2023/05/03 06:27:41;;;;;;;4.00;1.58;;;9.00;99.90;;;;;;5082480;28;20209;-81
2023/05/03 06:30:10;;;;;;;8.15;1.88;;;9.00;99.90;;;;;;5109021;28;20193;-81
2023/05/03 06:32:39;;;;;;;2.88;1.80;;;9.10;99.90;;;;;;5044975;28;20192;-81
2023/05/03 06:35:08;;;;;;;5.90;1.77;;;9.10;99.90;;;;;;5093828;28;20249;-79
2023/05/03 06:37:35;;;;;;;6.18;1.88;;;9.10;99.90;;;;;;5092642;28;20193;-80
2023/05/03 06:40:01;;;;;;;4.68;1.45;;;9.20;99.90;;;;;;5089697;28;20304;-82
2023/05/03 06:42:26;;;;;;;3.15;1.67;;;9.20;99.90;;;;;;5087293;28;20273;-80
2023/05/03 06:45:05;;;;;;;4.55;1.50;;;9.30;99.90;;;;;;5083603;28;20630;-82
2023/05/03 06:47:31;;;;;;;5.10;1.83;;;9.30;99.90;;;;;;5076245;28;20216;-82
2023/05/03 06:49:56;;;;;;;6.07;1.40;;;9.30;99.90;;;;;;5075491;28;20186;-84
2023/05/03 06:52:22;;;;;;;4.38;1.70;;;9.40;99.90;;;;;;5099330;28;20178;-82
2023/05/03 06:54:48;;;;;;;4.72;1.85;;;9.40;99.90;;;;;;5094252;28;20222;-83
2023/05/03 06:57:14;;;;;;;4.13;1.58;;;9.40;99.90;;;;;;5074922;28;20199;-82
2023/05/03 06:59:39;;;;;;;5.68;1.67;;;9.50;99.90;;;;;;5082212;28;20185;-81
2023/05/03 07:02:06;;;;;;;4.35;1.40;;;9.40;99.70;;;;;;5091039;28;20181;-82
2023/05/03 07:04:32;;;;;;;4.60;1.83;;;9.50;99.80;;;;;;5093576;28;20186;-82
2023/05/03 07:06:57;;;;;;;7.15;1.70;;;9.60;99.60;;;;;;5092464;28;20705;-82
2023/05/03 07:09:23;;;;;;;3.78;1.70;;;9.60;99.60;;;;;;5061239;28;20277;-86
2023/05/03 07:11:50;;;;;;;3.20;1.33;;;9.60;99.50;;;;;;5056942;28;20548;-81
2023/05/03 07:14:16;;;;;;;7.85;1.70;;;9.70;99.40;;;;;;5069867;28;20216;-83
2023/05/03 07:16:42;;;;;;;5.85;1.60;;;9.70;99.30;;;;;;5088238;28;20254;-81
2023/05/03 07:19:08;;;;;;;4.53;1.50;;;9.70;99.30;;;;;;5076550;28;20696;-81
2023/05/03 07:21:34;;;;;;;3.25;1.50;;;9.70;99.30;;;;;;5092506;28;20194;-81
2023/05/03 07:24:00;;;;;;;9.07;2.00;;;9.80;99.30;;;;;;5081970;28;20247;-81
2023/05/03 07:26:26;;;;;;;4.50;1.90;;;9.80;99.10;;;;;;5070371;28;20217;-92
2023/05/03 07:28:52;;;;;;;2.65;1.52;;;9.80;99.00;;;;;;5093551;28;20186;-85
2023/05/03 07:31:19;;;;;;;4.80;1.60;;;9.90;99.00;;;;;;5071123;28;20194;-88
2023/05/03 07:33:45;;;;;;;4.32;1.50;;;9.90;98.80;;;;;;5074296;28;20186;-82
2023/05/03 07:36:11;;;;;;;5.43;1.95;;;10.00;98.70;;;;;;5091634;28;20193;-81
2023/05/03 07:38:37;;;;;;;3.58;1.70;;;10.00;98.70;;;;;;5055838;28;20186;-82
2023/05/03 07:41:02;;;;;;;2.78;1.40;;;10.00;98.50;;;;;;5072724;28;20269;-81
2023/05/03 07:43:29;;;;;;;4.88;1.45;;;10.00;98.50;;;;;;5073282;28;20184;-82
2023/05/03 07:45:55;;;;;;;7.68;1.52;;;10.00;98.30;;;;;;5084284;28;20250;-81
2023/05/03 07:48:21;;;;;;;3.42;1.20;;;10.00;98.20;;;;;;5076803;28;20639;-83
2023/05/03 07:50:47;;;;;;;5.88;1.52;;;10.10;98.10;;;;;;5076743;28;20194;-79
2023/05/03 07:53:13;;;;;;;6.03;1.70;;;10.10;98.10;;;;;;5038963;28;20252;-80
2023/05/03 07:55:39;;;;;;;4.20;1.50;;;10.10;97.90;;;;;;5085154;28;20233;-79
2023/05/03 07:58:04;;;;;;;4.97;1.67;;;10.20;98.00;;;;;;5057234;28;20276;-80
2023/05/03 08:00:30;;;;;;;4.40;1.58;;;10.20;97.80;;;;;;5092165;28;20694;-80
2023/05/03 08:02:56;;;;;;;3.75;1.50;;;10.20;97.80;;;;;;5090270;28;20605;-80
2023/05/03 08:05:22;;;;;;;3.58;1.45;;;10.30;97.90;;;;;;5090819;28;20572;-81
2023/05/03 08:07:49;;;;;;;5.15;1.58;;;10.30;97.90;;;;;;5058562;28;20255;-79
2023/05/03 08:10:15;;;;;;;3.60;1.40;;;10.30;97.80;;;;;;5086559;28;20194;-80
2023/05/03 08:12:44;;;;;;;4.43;1.70;;;10.30;97.70;;;;;;5072760;28;20704;-79
2023/05/03 08:15:10;;;;;;;3.20;1.70;;;10.40;97.80;;;;;;5072571;28;20213;-80
2023/05/03 08:17:43;;;;;;;4.03;1.77;;;10.40;97.80;;;;;;5091710;28;20239;-79
2023/05/03 08:20:10;;;;;;;3.33;1.60;;;10.40;97.70;;;;;;5090439;28;20262;-80
2023/05/03 08:22:37;;;;;;;9.55;1.70;;;10.40;97.60;;;;;;5093049;28;20198;-82
2023/05/03 08:25:04;;;;;;;4.05;1.60;;;10.50;97.60;;;;;;5090695;28;20193;-81
2023/05/03 08:27:31;;;;;;;2.47;1.55;;;10.50;97.60;;;;;;5058181;28;20267;-80
2023/05/03 08:29:57;;;;;;;6.68;1.65;;;10.50;97.60;;;;;;5090488;28;20227;-84
2023/05/03 08:32:23;;;;;;;2.53;1.63;;;10.50;97.60;;;;;;5059879;28;20277;-81
2023/05/03 08:34:50;;;;;;;8.52;1.70;;;10.50;97.80;;;;;;5086246;28;20205;-81
2023/05/03 08:37:16;;;;;;;4.28;1.58;;;10.60;97.40;;;;;;5088902;28;20185;-81
2023/05/03 08:39:42;;;;;;;3.75;1.52;;;10.60;97.40;;;;;;5072106;28;20644;-85
2023/05/03 08:42:08;;;;;;;4.85;1.67;;;10.60;97.30;;;;;;5089984;28;20193;-80
2023/05/03 08:44:46;;;;;;;4.93;2.10;;;10.60;97.30;;;;;;5090908;28;20208;-82
2023/05/03 08:47:20;;;;;;;4.82;1.58;;;10.60;97.30;;;;;;5092630;28;20189;-82
2023/05/03 08:49:47;;;;;;;5.93;1.85;;;10.60;97.30;;;;;;5079600;28;20201;-82
2023/05/03 08:52:14;;;;;;;6.40;1.60;;;10.60;97.30;;;;;;5071037;28;20221;-81
2023/05/03 08:54:40;;;;;;;6.00;2.72;;;10.60;97.20;;;;;;5075119;28;20222;-85
2023/05/03 08:57:12;;;;;;;5.55;1.85;;;10.70;97.20;;;;;;5070095;28;20243;-81
2023/05/03 08:59:59;;;;;;;6.95;2.33;;;10.60;97.10;;;;;;5051585;28;20179;-81
2023/05/03 09:02:25;;;;;;;8.52;1.95;;;10.60;97.10;;;;;;5048920;28;20209;-82
2023/05/03 09:04:52;;;;;;;3.58;1.65;;;10.60;97.10;;;;;;5084228;28;20651;-82
2023/05/03 09:07:19;;;;;;;4.70;1.90;;;10.60;97.20;;;;;;5063589;28;20212;-82
2023/05/03 09:09:46;;;;;;;4.20;1.77;;;10.60;97.00;;;;;;5066593;28;20194;-82
2023/05/03 09:12:11;;;;;;;3.53;1.73;;;10.50;97.10;;;;;;5073440;28;20264;-81
2023/05/03 09:14:45;;;;;;;4.53;2.05;;;10.60;97.20;;;;;;5069826;28;20282;-82
2023/05/03 09:17:21;;;;;;;4.15;2.05;;;10.60;97.20;;;;;;5091938;28;20278;-82
2023/05/03 09:19:52;;;;;;;3.55;1.80;;;10.70;97.10;;;;;;5056757;28;20192;-83
2023/05/03 09:22:18;;;;;;;8.10;1.80;;;10.60;97.00;;;;;;5071456;28;20186;-83
2023/05/03 09:24:52;;;;;;;5.10;1.90;;;10.60;97.00;;;;;;5085843;28;20201;-82
2023/05/03 09:27:20;;;;;;;4.50;2.10;;;10.60;97.00;;;;;;5091644;28;20211;-79
2023/05/03 09:29:46;;;;;;;7.10;1.88;;;10.60;97.00;;;;;;5091188;28;20190;-82
2023/05/03 09:32:12;;;;;;;3.97;1.90;;;10.60;97.00;;;;;;5072321;28;20187;-82
2023/05/03 09:34:38;;;;;;;4.60;1.70;;;10.70;97.00;;;;;;5073641;28;20548;-81
2023/05/03 09:37:04;;;;;;;4.93;2.10;;;10.70;96.90;;;;;;5086266;28;20190;-81
2023/05/03 09:39:30;;;;;;;4.90;1.90;;;10.80;96.90;;;;;;5092372;28;20178;-82
2023/05/03 09:41:56;;;;;;;3.90;2.00;;;10.70;96.90;;;;;;5091119;28;20556;-82
2023/05/03 09:44:47;;;;;;;4.03;2.03;;;10.70;96.90;;;;;;5074022;28;20182;-82
2023/05/03 09:47:14;;;;;;;2.65;1.85;;;10.70;97.00;;;;;;5094449;28;20268;-82
2023/05/03 09:49:40;;;;;;;4.07;2.10;;;10.70;97.10;;;;;;5096369;28;20178;-83
2023/05/03 09:52:07;;;;;;;6.43;2.13;;;10.70;97.00;;;;;;5093519;28;20641;-82
2023/05/03 09:54:36;;;;;;;8.35;2.08;;;10.80;97.10;;;;;;5061670;28;20226;-85
2023/05/03 09:57:04;;;;;;;6.55;2.08;;;10.80;97.10;;;;;;5092181;28;20182;-83
2023/05/03 09:59:35;;;;;;;4.53;1.70;;;10.90;97.10;;;;;;5087929;28;20221;-85
2023/05/03 10:02:03;;;;;;;6.90;2.30;;;10.90;96.80;;;;;;5074992;28;20620;-82
2023/05/03 10:04:41;;;;;;;5.32;1.90;;;11.00;96.60;;;;;;5093235;28;20232;-82
2023/05/03 10:07:12;;;;;;;5.20;1.73;;;11.00;96.50;;;;;;5079242;28;20206;-83
2023/05/03 10:09:47;;;;;;;4.43;1.80;;;11.00;96.40;;;;;;5082057;28;20236;-83
2023/05/03 10:12:16;;;;;;;6.20;2.03;;;11.00;96.40;;;;;;5058053;28;20192;-83
2023/05/03 10:14:47;;;;;;;5.00;1.85;;;11.00;96.40;;;;;;5073262;28;20236;-83
2023/05/03 10:17:18;;;;;;;7.40;1.90;;;11.10;96.50;;;;;;5095163;28;20215;-82
2023/05/03 10:19:55;;;;;;;3.78;1.80;;;11.10;96.40;;;;;;5091131;28;20189;-84
2023/05/03 10:22:21;;;;;;;4.15;2.05;;;11.10;96.20;;;;;;5077221;28;20177;-82
2023/05/03 10:24:56;;;;;;;3.95;1.80;;;11.10;96.10;;;;;;5075997;28;20182;-83
2023/05/03 10:27:22;;;;;;;9.73;1.90;;;11.20;96.20;;;;;;5056803;28;20273;-82
2023/05/03 10:29:50;;;;;;;4.85;1.80;;;11.30;96.00;;;;;;5056276;28;20197;-84
2023/05/03 10:32:38;;;;;;;3.15;1.83;;;11.30;95.70;;;;;;5093862;28;20580;-83
2023/05/03 10:35:11;;;;;;;6.18;2.05;;;11.30;95.60;;;;;;5089472;28;20280;-83
2023/05/03 10:37:40;;;;;;;5.97;2.05;;;11.40;95.50;;;;;;5073484;28;20253;-82
2023/05/03 10:40:12;;;;;;;7.28;2.30;;;11.40;95.40;;;;;;5076537;28;20197;-83
2023/05/03 10:42:41;;;;;;;5.25;2.25;;;11.40;95.40;;;;;;5088131;28;20262;-82
2023/05/03 10:45:08;;;;;;;5.95;2.03;;;11.40;95.30;;;;;;5074214;28;20178;-82
2023/05/03 10:47:34;;;;;;;10.00;2.15;;;11.40;95.20;;;;;;5097214;28;20210;-82
2023/05/03 10:50:15;;;;;;;5.95;2.10;;;11.50;95.20;;;;;;5092169;28;20178;-82
2023/05/03 10:52:41;;;;;;;4.43;1.85;;;11.50;95.10;;;;;;5095567;28;20178;-82
2023/05/03 10:55:19;;;;;;;4.05;1.70;;;11.60;95.00;;;;;;5091630;28;20314;-82
2023/05/03 10:57:46;;;;;;;4.57;2.10;;;11.60;94.90;;;;;;5092249;28;20257;-83
2023/05/03 11:00:26;;;;;;;6.57;2.08;;;11.70;94.70;;;;;;5081363;28;20185;-82
2023/05/03 11:03:22;;;;;;;10.68;1.90;;;11.70;94.50;;;;;;5082668;28;20185;-83
2023/05/03 11:05:48;;;;;;;10.85;2.00;;;11.70;94.20;;;;;;5091459;28;20182;-82
2023/05/03 11:08:17;;;;;;;4.05;1.70;;;11.70;94.00;;;;;;5093835;28;20212;-82
2023/05/03 11:10:44;;;;;;;7.95;2.13;;;11.80;93.90;;;;;;5092452;28;20198;-83
2023/05/03 11:13:10;;;;;;;3.40;1.80;;;11.80;93.70;;;;;;5093042;28;20273;-83
2023/05/03 11:15:37;;;;;;;6.18;2.03;;;11.80;93.70;;;;;;5083498;28;20194;-83
2023/05/03 11:18:06;;;;;;;3.88;1.90;;;11.90;93.50;;;;;;5073658;28;20257;-84
2023/05/03 11:20:32;;;;;;;4.55;2.20;;;12.00;93.40;;;;;;5079411;28;20182;-83
2023/05/03 11:22:58;;;;;;;5.15;2.00;;;12.00;93.10;;;;;;5073365;28;20193;-83
2023/05/03 11:25:24;;;;;;;7.20;2.10;;;12.10;92.80;;;;;;5091298;28;20546;-83
2023/05/03 11:27:50;;;;;;;4.05;1.98;;;12.10;92.50;;;;;;5075519;28;20284;-83
2023/05/03 11:30:16;;;;;;;2.72;1.60;;;12.20;92.50;;;;;;5088153;28;20213;-83
2023/05/03 11:32:43;;;;;;;3.75;1.63;;;12.30;92.20;;;;;;5073098;28;20272;-83
2023/05/03 11:35:11;;;;;;;3.75;1.80;;;12.40;92.10;;;;;;5086277;28;20185;-83
2023/05/03 11:37:36;;;;;;;4.18;1.90;;;12.40;91.70;;;;;;5074878;28;20193;-83
2023/05/03 11:40:07;;;;;;;4.43;1.77;;;12.50;91.80;;;;;;5090961;28;21167;-82
2023/05/03 11:42:33;;;;;;;8.10;2.00;;;12.60;91.50;;;;;;5093963;28;20165;-83
2023/05/03 11:45:00;;;;;;;4.60;2.05;;;12.70;91.80;;;;;;5089318;28;20200;-82
2023/05/03 11:47:26;;;;;;;5.85;2.63;;;12.70;91.70;;;;;;5074136;28;20232;-81
2023/05/03 11:49:56;;;;;;;7.05;2.65;;;12.70;92.10;;;;;;5091745;28;20669;-83
2023/05/03 11:52:23;;;;;;;9.18;2.30;;;12.80;92.30;;;;;;5088869;28;20182;-82
2023/05/03 11:54:53;;;;;;;8.13;2.13;;;12.90;92.40;;;;;;5055943;28;20582;-83
2023/05/03 11:57:20;;;;;;;6.07;2.05;;;12.90;92.30;;;;;;5072870;28;20182;-82
2023/05/03 11:59:48;;;;;;;3.58;1.85;;;12.90;92.40;;;;;;5055997;28;20344;-81
2023/05/03 12:02:14;;;;;;;4.88;2.10;;;13.00;92.60;;;;;;5088687;28;20643;-82
2023/05/03 12:04:42;;;;;;;6.93;2.08;;;13.00;92.60;;;;;;5090857;28;20273;-84
2023/05/03 12:07:12;;;;;;;6.47;2.15;;;13.00;92.70;;;;;;5090265;28;20194;-81
2023/05/03 12:09:39;;;;;;;6.45;2.30;;;13.00;92.80;;;;;;5093104;28;20189;-82
2023/05/03 12:12:04;;;;;;;7.57;2.00;;;13.10;92.80;;;;;;5092464;28;20541;-81
2023/05/03 12:14:57;;;;;;;5.20;2.13;;;13.10;92.70;;;;;;5076030;28;20696;-80
2023/05/03 12:17:36;;;;;;;4.60;2.03;;;13.20;92.60;;;;;;5088082;28;20727;-81
2023/05/03 12:20:19;;;;;;;7.90;2.75;;;13.20;92.40;;;;;;5076754;28;20196;-82
2023/05/03 12:22:51;;;;;;;9.65;2.50;;;13.20;92.10;;;;;;5090157;28;20177;-82
2023/05/03 12:25:16;;;;;;;3.22;2.10;;;13.20;92.30;;;;;;5087185;28;20269;-82
2023/05/03 12:27:42;;;;;;;5.65;2.28;;;13.20;92.40;;;;;;5072962;28;20774;-82
2023/05/03 12:30:11;;;;;;;7.85;2.30;;;13.30;92.30;;;;;;5086540;28;20197;-81
2023/05/03 12:32:37;;;;;;;4.00;1.90;;;13.30;92.30;;;;;;5083774;28;20186;-82
2023/05/03 12:35:07;;;;;;;6.57;2.20;;;13.30;92.10;;;;;;5088042;28;20658;-83
2023/05/03 12:37:34;;;;;;;3.53;2.10;;;13.40;91.90;;;;;;5090889;28;20190;-83
2023/05/03 12:40:00;;;;;;;5.45;2.30;;;13.40;91.60;;;;;;5087435;28;20174;-87
2023/05/03 12:42:27;;;;;;;8.27;2.00;;;13.30;91.40;;;;;;5090844;28;20200;-81
2023/05/03 12:44:57;;;;;;;5.13;2.15;;;13.30;91.90;;;;;;5089690;28;20181;-86
2023/05/03 12:47:23;;;;;;;4.53;2.33;;;13.40;91.60;;;;;;5057858;28;20237;-82
2023/05/03 12:49:49;;;;;;;5.80;2.35;;;13.40;91.40;;;;;;5089439;28;20232;-84
2023/05/03 12:52:15;;;;;;;3.33;1.90;;;13.50;91.30;;;;;;5091181;28;20196;-81
2023/05/03 12:54:41;;;;;;;6.22;2.20;;;13.50;91.00;;;;;;5092482;28;20221;-83
2023/05/03 12:57:08;;;;;;;7.68;2.40;;;13.50;90.90;;;;;;5074822;28;20224;-81